My Meet Scores
Taylor Sperling, Phenom Gymnastics - MyMeetScores.com
Top100 | Top Teams | Upcoming Meets | Completed Meets | Latest | Add Scores | Help| Support | Bookmark and Share

Taylor Sperling, Phenom Gymnastics
Personal Bests
LevelVault BarsBeamFloorAA
39.4009.225 8.9509.45037.025
49.4009.525 9.7759.90038.475
59.4759.350 9.3009.35037.100
79.6759.250 9.4509.57536.925
89.0009.475 9.4509.55037.275
Scores on America's Top 100as of 11.20.2019
Year Level Vault Bars Beam Floor AA
2016 49.900
Meet Scores
Date Meet Team Session Level Division Vault Bars Beam Floor AA
2019-03-29 Illinois Level 7 & 8 State Meet Phenom Gymnastics 1 8 Jr C 8.800 11 9.475 9 9.450 4 9.550 1T 37.275 5
2019-03-01 NGCD Academy's 2019 Flip'r Invitational Phenom Gymnastics 4 8 Jr A 9.000 4 7.400 10 8.650 9 9.075 6 34.125 7
2019-02-23 Kinetic Classic 2019 Phenom Gymnastics 1 8 Younger 8.700 9 6.600 14 9.025 7T 9.250 6T 33.575 12
2019-02-01 The Big Chill Phenom Gymnastics 2 8 12 yr olds 0.000 2 8.000 8 8.700 6 9.475 2 34.425 6
2019-01-18 2019 Bravo Classic Phenom Gymnastics 5A 8 Child 8.400 11 6.750 17 8.900 12T 9.275 7 33.325 16
2018-12-14 2018 Aspire Classic Phenom Gymnastics 4 8 Younger 7.850 17 7.600 18 9.275 7 9.325 5 34.050 16
2018-12-07 2018 MEGA Magic Classic Phenom Gymnastics A4 8 Jr A 7.900 10 7.300 15 8.875 5T 9.225 7T 33.300 10
2018-03-23 Illinois Level 7 & 8 State Competition Phenom Gymnastics 10 7 Ch C 9.600 3T 8.925 19 8.800 22 9.500 9T 36.825 17
2018-03-02 2018 Flip'r Invitational Phenom Gymnastics 2 7 Jr A Age 11 8.925 8 8.950 8 8.725 7 9.500 4 36.100 7
2018-02-01 The Big Chill Phenom Gymnastics 5 7 10 11 yr 9.275 9 8.350 11 9.450 7T 9.450 4 36.525 9
2018-01-19 2018 Bravo Classic Phenom Gymnastics 4A 7 Child 9.550 3 8.800 15T 8.925 17 9.375 6T 36.650 12
2018-01-12 St Jude Benefit Meet Phenom Gymnastics 8B 7 JrA 9.525 5T 9.250 7 8.750 10T 9.000 12T 36.525 9T
2017-12-15 2017 Aspire Classic Phenom Gymnastics 2 7 Jr A 9.675 3T 9.150 14T 8.850 14T 9.250 13T 36.925 13
2017-12-08 MEGA Magic Classic 2017 Phenom Gymnastics 2B 7 Jr A 9.150 4 8.650 11 9.350 6T 9.500 1 36.650 5
2017-11-16 Paul Hamm Thanksgiving Classic - Women Phenom Gymnastics 3 7 Younger 9.125 56 8.900 30* 9.300 13T 9.575 3T 36.900 22T
2017-03-30 2017 Illinois Level 3 & 5 State Phenom Gymnastics All 5 Jr C 9.275 9 9.175 9T 9.300 5 9.350 7T 37.100 6
2017-03-10 Lucky Invitational Phenom Gymnastics A08 5 Jr A 9.450 2 8.950 9 9.225 4 9.300 2T 36.925 3
2017-02-17 Big Classic Phenom Gymnastics B 5 Child A 9.475 1 9.350 7T 8.150 29 9.225 8T 36.200 13T
2017-01-20 2017 Bravo Classic Phenom Gymnastics 04B 5 10yrs 9.400 9T 8.900 14 9.150 4T 9.050 10T 36.500 7T
2016-12-16 2016 Aspire Classic Phenom Gymnastics 7 4 Middle 9.275 2 9.525 1 9.775 2 9.900 1 38.475 1
2016-12-09 MEGA Magic Classic 2016 Phenom Gymnastics 8A 4 Child B 9.100 2 9.300 4T 8.800 6 9.550 1 36.750 2T
2016-12-02 Ultimate Wish Classic Phenom Gymnastics 5 4 Jr B 9.400 1 9.450 1 9.350 4 9.750 1 37.950 1
2016-03-10 2016 Illinois Level 4 State Meet Phenom Gymnastics All 4 Child-F 8.725 20 9.025 13 9.050 15 9.000 14 35.800 12
2016-02-20 Big Classic Phenom Gymnastics 2B 4 Child A 9.125 5 9.050 11 8.825 12T 9.050 7* 36.050 6T
2016-01-15 2016 Bravo Classic Phenom Gymnastics 14A 4 9yrs 8.900 3T 9.150 7T 9.200 6T 9.375 2 36.625 3
2015-12-11 St. Nick Invite Phenom Gymnastics 5A 4 Child 8.300 11T 8.600 5 8.300 17 8.875 4 34.075 11
2015-03-12 2015 Illinois Level 3 State Championship Phenom Gymnastics All 3 Youth-A 9.400 9 9.225 11 8.950 22 9.450 8 37.025 9
2015-03-05 Spring Hill Elgin Invitational Phenom Gymnastics 3B 3 CHILD 9.400 22 8.900 28T 8.600 31T 9.325 10T 36.225 20T
2014-12-12 2014 MEGA Magic Classic Phenom Gymnastics 1 3 Child A 8.925 11T 8.700 5 8.075 16 9.275 3T 34.975 6
Get your scores on
a t-shirt, pin, or hoodie

www.lazysuits.com